createdAt,value
2023-01-01T00:01:28.410Z,15.60
2023-01-01T00:03:57.209Z,15.60
2023-01-01T00:06:24.301Z,15.70
2023-01-01T00:09:14.292Z,15.60
2023-01-01T00:11:41.301Z,15.60
2023-01-01T00:14:12.288Z,15.60
2023-01-01T00:16:39.437Z,15.60
2023-01-01T00:19:06.132Z,15.60
2023-01-01T00:21:32.791Z,15.60
2023-01-01T00:23:59.433Z,15.50
2023-01-01T00:26:29.543Z,15.50
2023-01-01T00:29:01.339Z,15.50
2023-01-01T00:31:28.099Z,15.50
2023-01-01T00:33:55.703Z,15.50
2023-01-01T00:36:23.921Z,15.50
2023-01-01T00:38:50.572Z,15.50
2023-01-01T00:41:18.235Z,15.50
2023-01-01T00:43:45.234Z,15.50
2023-01-01T00:46:12.570Z,15.50
2023-01-01T00:48:39.705Z,15.50
2023-01-01T00:51:06.661Z,15.40
2023-01-01T00:53:33.626Z,15.40
2023-01-01T00:56:00.376Z,15.40
2023-01-01T00:58:27.073Z,15.30
2023-01-01T01:00:54.917Z,15.40
2023-01-01T01:03:28.092Z,15.30
2023-01-01T01:06:00.630Z,15.30
2023-01-01T01:08:31.149Z,15.30
2023-01-01T01:11:06.150Z,15.30
2023-01-01T01:13:33.036Z,15.30
2023-01-01T01:15:59.683Z,15.30
2023-01-01T01:18:26.592Z,15.30
2023-01-01T01:20:53.838Z,15.30
2023-01-01T01:23:20.973Z,15.30
2023-01-01T01:25:51.471Z,15.30
2023-01-01T01:28:18.312Z,15.20
2023-01-01T01:30:45.010Z,15.30
2023-01-01T01:33:12.146Z,15.20
2023-01-01T01:35:38.781Z,15.30
2023-01-01T01:38:05.435Z,15.20
2023-01-01T01:40:33.387Z,15.20
2023-01-01T01:43:00.021Z,15.20
2023-01-01T01:45:33.029Z,15.30
2023-01-01T01:48:00.394Z,15.20
2023-01-01T01:50:30.782Z,15.20
2023-01-01T01:53:05.317Z,15.20
2023-01-01T01:55:35.670Z,15.20
2023-01-01T01:58:03.260Z,15.20
2023-01-01T02:00:30.505Z,15.10
2023-01-01T02:03:07.082Z,15.10
2023-01-01T02:05:34.782Z,15.10
2023-01-01T02:08:03.393Z,15.10
2023-01-01T02:10:30.120Z,15.10
2023-01-01T02:12:56.916Z,15.10
2023-01-01T02:15:26.724Z,15.10
2023-01-01T02:18:02.982Z,15.10
2023-01-01T02:20:49.412Z,15.00
2023-01-01T02:23:42.829Z,15.00
2023-01-01T02:26:38.415Z,15.00
2023-01-01T02:29:25.495Z,15.00
2023-01-01T02:32:06.471Z,14.90
2023-01-01T02:34:41.236Z,14.90
2023-01-01T02:37:09.531Z,14.90
2023-01-01T02:39:39.907Z,14.90
2023-01-01T02:42:08.347Z,14.90
2023-01-01T02:44:36.870Z,14.90
2023-01-01T02:47:08.822Z,14.80
2023-01-01T02:49:39.607Z,14.80
2023-01-01T02:52:10.646Z,14.70
2023-01-01T02:54:57.754Z,14.70
2023-01-01T02:57:42.869Z,14.70
2023-01-01T03:00:40.664Z,14.70
2023-01-01T03:03:28.468Z,14.70
2023-01-01T03:06:32.664Z,14.60
2023-01-01T03:09:25.779Z,14.60
2023-01-01T03:12:01.611Z,14.60
2023-01-01T03:14:40.995Z,14.60
2023-01-01T03:17:39.090Z,14.50
2023-01-01T03:20:13.563Z,14.50
2023-01-01T03:25:14.532Z,14.40
2023-01-01T03:27:44.913Z,14.40
2023-01-01T03:30:13.099Z,14.40
2023-01-01T03:33:03.421Z,14.40
2023-01-01T03:35:54.347Z,14.30
2023-01-01T03:38:34.497Z,14.30
2023-01-01T03:41:04.100Z,14.30
2023-01-01T03:43:41.997Z,14.30
2023-01-01T03:46:09.465Z,14.20
2023-01-01T03:49:02.745Z,14.30
2023-01-01T03:51:52.621Z,14.20
2023-01-01T03:54:28.106Z,14.20
2023-01-01T03:57:17.968Z,14.10
2023-01-01T03:59:56.413Z,14.20
2023-01-01T04:02:34.543Z,14.10
2023-01-01T04:05:02.545Z,14.00
2023-01-01T04:07:31.111Z,14.10
2023-01-01T04:10:01.101Z,14.00
2023-01-01T04:12:28.804Z,14.00
2023-01-01T04:14:55.578Z,13.90
2023-01-01T04:17:22.210Z,13.90
2023-01-01T04:19:54.714Z,13.90
2023-01-01T04:22:23.198Z,13.90
2023-01-01T04:24:49.903Z,13.90
2023-01-01T04:27:17.138Z,13.90
2023-01-01T04:29:43.790Z,13.80
2023-01-01T04:32:10.609Z,13.80
2023-01-01T04:34:38.144Z,13.80
2023-01-01T04:37:08.310Z,13.70
2023-01-01T04:39:39.403Z,13.70
2023-01-01T04:42:06.101Z,13.70
2023-01-01T04:44:32.922Z,13.70
2023-01-01T04:47:00.367Z,13.60
2023-01-01T04:49:27.487Z,13.60
2023-01-01T04:51:54.106Z,13.60
2023-01-01T04:54:20.747Z,13.50
2023-01-01T04:56:47.389Z,13.50
2023-01-01T04:59:13.978Z,13.50
2023-01-01T05:01:40.876Z,13.50
2023-01-01T05:04:07.600Z,13.50
2023-01-01T05:06:34.249Z,13.50
2023-01-01T05:09:03.921Z,13.40
2023-01-01T05:11:31.194Z,13.40
2023-01-01T05:14:01.669Z,13.40
2023-01-01T05:16:31.424Z,13.40
2023-01-01T05:18:58.479Z,13.40
2023-01-01T05:21:31.964Z,13.40
2023-01-01T05:24:04.197Z,13.40
2023-01-01T05:26:35.063Z,13.30
2023-01-01T05:29:02.178Z,13.30
2023-01-01T05:31:34.008Z,13.30
2023-01-01T05:36:29.117Z,13.30
2023-01-01T05:38:55.748Z,13.30
2023-01-01T05:41:22.874Z,13.30
2023-01-01T05:43:50.704Z,13.30
2023-01-01T05:46:22.294Z,13.30
2023-01-01T05:48:49.190Z,13.40
2023-01-01T05:51:21.541Z,13.30
2023-01-01T05:53:48.186Z,13.30
2023-01-01T05:56:16.018Z,13.30
2023-01-01T05:58:43.419Z,13.30
2023-01-01T06:01:15.505Z,13.30
2023-01-01T06:03:43.552Z,13.30
2023-01-01T06:06:17.229Z,13.30
2023-01-01T06:08:49.729Z,13.20
2023-01-01T06:11:16.488Z,13.20
2023-01-01T06:13:43.095Z,13.20
2023-01-01T06:16:10.388Z,13.20
2023-01-01T06:18:37.273Z,13.20
2023-01-01T06:21:12.802Z,13.20
2023-01-01T06:23:39.600Z,13.20
2023-01-01T06:26:11.018Z,13.20
2023-01-01T06:28:38.426Z,13.20
2023-01-01T06:31:07.541Z,13.20
2023-01-01T06:33:34.770Z,13.20
2023-01-01T06:36:07.050Z,13.20
2023-01-01T06:38:35.605Z,13.20
2023-01-01T06:41:05.498Z,13.20
2023-01-01T06:43:33.458Z,13.10
2023-01-01T06:46:07.883Z,13.10
2023-01-01T06:48:35.942Z,13.10
2023-01-01T06:51:17.301Z,13.10
2023-01-01T06:53:44.031Z,13.10
2023-01-01T06:56:10.936Z,13.10
2023-01-01T06:58:37.732Z,13.10
2023-01-01T07:01:12.802Z,13.00
2023-01-01T07:03:40.326Z,13.10
2023-01-01T07:06:08.049Z,13.10
2023-01-01T07:08:35.122Z,13.10
2023-01-01T07:11:02.391Z,13.10
2023-01-01T07:13:30.009Z,13.10
2023-01-01T07:15:56.788Z,13.10
2023-01-01T07:18:24.658Z,13.10
2023-01-01T07:20:56.646Z,13.10
2023-01-01T07:23:23.603Z,13.10
2023-01-01T07:25:51.690Z,13.10
2023-01-01T07:28:18.747Z,13.10
2023-01-01T07:30:45.805Z,13.10
2023-01-01T07:33:13.815Z,13.10
2023-01-01T07:35:40.938Z,13.10
2023-01-01T07:38:08.006Z,13.10
2023-01-01T07:40:34.660Z,13.10
2023-01-01T07:43:01.312Z,13.10
2023-01-01T07:45:28.237Z,13.00
2023-01-01T07:47:56.212Z,13.10
2023-01-01T07:50:24.419Z,13.10
2023-01-01T07:52:51.217Z,13.10
2023-01-01T07:55:19.087Z,13.10
2023-01-01T07:57:46.450Z,13.10
2023-01-01T08:00:15.645Z,13.10
2023-01-01T08:02:43.958Z,13.10
2023-01-01T08:05:11.137Z,13.10
2023-01-01T08:07:37.994Z,13.10
2023-01-01T08:10:06.290Z,13.10
2023-01-01T08:12:33.358Z,13.10
2023-01-01T08:15:00.008Z,13.10
2023-01-01T08:17:26.662Z,13.10
2023-01-01T08:19:53.267Z,13.10
2023-01-01T08:22:20.004Z,13.20
2023-01-01T08:24:46.623Z,13.10
2023-01-01T08:27:16.951Z,13.10
2023-01-01T08:29:44.851Z,13.20
2023-01-01T08:32:12.667Z,13.20
2023-01-01T08:34:39.504Z,13.10
2023-01-01T08:37:06.755Z,13.10
2023-01-01T08:39:33.549Z,13.10
2023-01-01T08:42:00.192Z,13.20
2023-01-01T08:44:26.822Z,13.20
2023-01-01T08:46:53.742Z,13.20
2023-01-01T08:49:20.388Z,13.20
2023-01-01T08:51:47.044Z,13.20
2023-01-01T08:54:13.704Z,13.20
2023-01-01T08:56:40.329Z,13.20
2023-01-01T08:59:07.111Z,13.20
2023-01-01T09:01:33.785Z,13.20
2023-01-01T09:04:00.462Z,13.30
2023-01-01T09:06:27.107Z,13.30
2023-01-01T09:08:53.785Z,13.30
2023-01-01T09:11:26.521Z,13.20
2023-01-01T09:13:53.782Z,13.20
2023-01-01T09:16:21.341Z,13.30
2023-01-01T09:18:48.034Z,13.20
2023-01-01T09:21:14.685Z,13.30
2023-01-01T09:23:41.315Z,13.30
2023-01-01T09:26:09.263Z,13.30
2023-01-01T09:28:36.694Z,13.30
2023-01-01T09:31:06.312Z,13.30
2023-01-01T09:33:33.829Z,13.30
2023-01-01T09:36:30.804Z,13.40
2023-01-01T09:38:58.517Z,13.40
2023-01-01T09:41:31.167Z,13.40
2023-01-01T09:44:03.878Z,13.50
2023-01-01T09:46:32.034Z,13.40
2023-01-01T09:49:03.443Z,13.50
2023-01-01T09:51:34.911Z,13.50
2023-01-01T09:54:06.760Z,13.50
2023-01-01T09:56:35.245Z,13.50
2023-01-01T09:59:01.959Z,13.60
2023-01-01T10:01:49.420Z,13.60
2023-01-01T10:04:47.983Z,13.60
2023-01-01T10:07:14.562Z,13.60
2023-01-01T10:09:43.899Z,13.70
2023-01-01T10:12:41.313Z,13.70
2023-01-01T10:15:24.025Z,13.70
2023-01-01T10:17:57.568Z,13.80
2023-01-01T10:20:44.822Z,13.80
2023-01-01T10:23:21.453Z,13.80
2023-01-01T10:25:48.113Z,13.90
2023-01-01T10:28:20.013Z,13.90
2023-01-01T10:30:46.722Z,14.00
2023-01-01T10:33:14.747Z,14.00
2023-01-01T10:35:53.474Z,14.00
2023-01-01T10:38:24.858Z,14.10
2023-01-01T10:40:53.377Z,14.10
2023-01-01T10:43:20.000Z,14.10
2023-01-01T10:45:54.128Z,14.20
2023-01-01T10:48:26.333Z,14.20
2023-01-01T10:50:56.138Z,14.30
2023-01-01T10:53:26.189Z,14.30
2023-01-01T10:56:16.741Z,14.30
2023-01-01T10:58:48.321Z,14.40
2023-01-01T11:01:20.683Z,15.90
2023-01-01T11:03:57.950Z,14.50
2023-01-01T11:06:35.611Z,14.50
2023-01-01T11:09:06.812Z,14.60
2023-01-01T11:11:44.294Z,14.60
2023-01-01T11:14:28.483Z,14.70
2023-01-01T11:16:56.231Z,14.70
2023-01-01T11:19:34.522Z,14.70
2023-01-01T11:22:01.260Z,14.80
2023-01-01T11:24:30.613Z,14.80
2023-01-01T11:27:23.464Z,14.90
2023-01-01T11:29:54.681Z,14.90
2023-01-01T11:32:31.680Z,15.00
2023-01-01T11:35:01.467Z,15.00
2023-01-01T11:37:37.782Z,15.10
2023-01-01T11:40:05.605Z,15.10
2023-01-01T11:42:34.414Z,15.20
2023-01-01T11:45:21.205Z,15.30
2023-01-01T11:48:01.959Z,15.30
2023-01-01T11:50:32.650Z,15.40
2023-01-01T11:53:22.742Z,15.40
2023-01-01T11:55:55.439Z,15.50
2023-01-01T11:58:26.101Z,15.30
2023-01-01T12:01:16.108Z,15.50
2023-01-01T12:03:44.455Z,15.60
2023-01-01T12:06:26.218Z,15.60
2023-01-01T12:09:07.248Z,15.70
2023-01-01T12:11:44.522Z,15.70
2023-01-01T12:14:20.419Z,15.80
2023-01-01T12:16:55.155Z,15.80
2023-01-01T12:19:48.401Z,15.90
2023-01-01T12:22:19.520Z,15.90
2023-01-01T12:24:49.891Z,16.00
2023-01-01T12:27:40.660Z,16.00
2023-01-01T12:30:31.737Z,16.10
2023-01-01T12:33:27.428Z,16.10
2023-01-01T12:36:26.498Z,16.20
2023-01-01T12:39:14.427Z,16.30
2023-01-01T12:41:47.599Z,16.40
2023-01-01T12:44:40.590Z,16.40
2023-01-01T12:47:44.267Z,16.50
2023-01-01T12:50:34.735Z,16.50
2023-01-01T12:53:40.576Z,16.60
2023-01-01T12:56:17.593Z,16.70
2023-01-01T12:58:55.839Z,18.30
2023-01-01T13:01:34.572Z,16.80
2023-01-01T13:04:07.519Z,16.80
2023-01-01T13:06:42.685Z,16.90
2023-01-01T13:09:22.250Z,17.00
2023-01-01T13:12:11.889Z,17.00
2023-01-01T13:14:39.991Z,17.10
2023-01-01T13:17:24.455Z,17.20
2023-01-01T13:19:59.727Z,17.20
2023-01-01T13:22:26.620Z,17.30
2023-01-01T13:25:11.739Z,17.30
2023-01-01T13:28:00.399Z,17.40
2023-01-01T13:30:36.379Z,17.40
2023-01-01T13:33:29.769Z,17.50
2023-01-01T13:36:09.161Z,17.60
2023-01-01T13:38:50.569Z,17.60
2023-01-01T13:41:26.633Z,17.70
2023-01-01T13:44:18.058Z,17.70
2023-01-01T13:46:44.748Z,17.80
2023-01-01T13:49:48.341Z,17.80
2023-01-01T13:52:42.183Z,17.80
2023-01-01T13:55:27.618Z,17.90
2023-01-01T13:58:06.359Z,17.90
2023-01-01T14:00:32.957Z,17.90
2023-01-01T14:03:01.825Z,18.00
2023-01-01T14:05:33.147Z,18.10
2023-01-01T14:07:59.831Z,18.00
2023-01-01T14:10:31.421Z,18.10
2023-01-01T14:13:08.466Z,19.40
2023-01-01T14:15:37.857Z,18.10
2023-01-01T14:18:07.267Z,18.10
2023-01-01T14:20:42.192Z,18.10
2023-01-01T14:23:16.612Z,18.10
2023-01-01T14:25:44.171Z,18.10
2023-01-01T14:28:22.274Z,18.20
2023-01-01T14:30:49.186Z,18.10
2023-01-01T14:33:26.791Z,18.10
2023-01-01T14:36:04.948Z,18.20
2023-01-01T14:38:33.793Z,18.10
2023-01-01T14:41:23.372Z,18.10
2023-01-01T14:43:51.831Z,18.10
2023-01-01T14:46:21.409Z,18.10
2023-01-01T14:48:55.480Z,18.20
2023-01-01T14:51:27.937Z,18.10
2023-01-01T14:53:58.322Z,18.10
2023-01-01T14:56:36.790Z,18.10
2023-01-01T14:59:28.975Z,18.40
2023-01-01T15:02:11.779Z,18.10
2023-01-01T15:04:38.893Z,18.10
2023-01-01T15:07:06.314Z,18.10
2023-01-01T15:09:33.284Z,18.20
2023-01-01T15:12:01.136Z,18.10
2023-01-01T15:14:40.964Z,18.10
2023-01-01T15:17:09.980Z,18.10
2023-01-01T15:19:37.970Z,18.10
2023-01-01T15:22:27.594Z,18.00
2023-01-01T15:24:54.527Z,18.00
2023-01-01T15:27:23.263Z,18.00
2023-01-01T15:29:50.702Z,17.90
2023-01-01T15:32:33.903Z,17.90
2023-01-01T15:35:18.769Z,17.80
2023-01-01T15:37:48.625Z,17.80
2023-01-01T15:40:15.166Z,17.80
2023-01-01T15:42:48.810Z,17.80
2023-01-01T15:45:28.474Z,17.70
2023-01-01T15:47:57.173Z,17.70
2023-01-01T15:50:26.688Z,17.70
2023-01-01T15:53:03.034Z,17.60
2023-01-01T15:55:34.900Z,17.60
2023-01-01T15:58:03.200Z,17.60
2023-01-01T16:00:33.137Z,17.60
2023-01-01T16:03:04.039Z,17.40
2023-01-01T16:05:30.794Z,17.50
2023-01-01T16:08:02.841Z,17.50
2023-01-01T16:10:29.900Z,17.40
2023-01-01T16:12:56.505Z,17.40
2023-01-01T16:15:24.255Z,17.30
2023-01-01T16:17:51.112Z,17.30
2023-01-01T16:20:18.959Z,17.30
2023-01-01T16:22:46.280Z,17.20
2023-01-01T16:25:21.330Z,17.20
2023-01-01T16:27:48.134Z,17.10
2023-01-01T16:30:15.385Z,17.00
2023-01-01T16:32:42.029Z,17.00
2023-01-01T16:35:12.997Z,16.90
2023-01-01T16:37:39.671Z,16.90
2023-01-01T16:40:07.542Z,16.90
2023-01-01T16:42:34.159Z,16.80
2023-01-01T16:45:00.755Z,16.80
2023-01-01T16:47:27.387Z,16.70
2023-01-01T16:49:54.031Z,16.70
2023-01-01T16:52:20.665Z,16.60
2023-01-01T16:54:48.066Z,16.60
2023-01-01T16:57:14.732Z,16.60
2023-01-01T16:59:41.390Z,16.60
2023-01-01T17:02:10.154Z,16.50
2023-01-01T17:04:36.868Z,16.50
2023-01-01T17:07:03.468Z,16.40
2023-01-01T17:09:30.063Z,16.40
2023-01-01T17:11:56.680Z,16.30
2023-01-01T17:14:23.480Z,16.30
2023-01-01T17:16:53.052Z,16.30
2023-01-01T17:19:19.862Z,16.30
2023-01-01T17:21:47.332Z,16.20
2023-01-01T17:24:16.015Z,16.20
2023-01-01T17:26:42.847Z,16.20
2023-01-01T17:29:09.815Z,16.10
2023-01-01T17:31:36.724Z,16.10
2023-01-01T17:34:03.748Z,16.10
2023-01-01T17:36:30.597Z,16.00
2023-01-01T17:38:57.623Z,16.00
2023-01-01T17:41:24.568Z,16.00
2023-01-01T17:43:51.836Z,15.90
2023-01-01T17:46:23.094Z,15.90
2023-01-01T17:48:50.150Z,16.50
2023-01-01T17:52:42.650Z,15.80
2023-01-01T17:55:27.157Z,17.10
2023-01-01T18:01:30.516Z,15.90
2023-01-01T18:04:02.485Z,15.60
2023-01-01T18:06:30.908Z,15.60
2023-01-01T18:08:59.387Z,15.60
2023-01-01T18:11:30.480Z,15.60
2023-01-01T18:13:57.987Z,15.50
2023-01-01T18:16:24.743Z,15.50
2023-01-01T18:18:51.572Z,15.50
2023-01-01T18:21:23.800Z,15.40
2023-01-01T18:23:51.611Z,15.40
2023-01-01T18:26:19.183Z,15.30
2023-01-01T18:28:45.833Z,15.30
2023-01-01T18:31:14.949Z,15.30
2023-01-01T18:33:42.415Z,15.20
2023-01-01T18:36:14.432Z,15.20
2023-01-01T18:38:43.979Z,15.10
2023-01-01T18:41:25.876Z,15.10
2023-01-01T18:43:52.579Z,15.00
2023-01-01T18:46:20.493Z,15.00
2023-01-01T18:48:47.210Z,14.90
2023-01-01T18:51:18.510Z,14.90
2023-01-01T18:53:45.140Z,14.90
2023-01-01T18:56:14.037Z,14.80
2023-01-01T18:58:42.869Z,14.80
2023-01-01T19:01:15.992Z,14.20
2023-01-01T19:03:42.855Z,14.70
2023-01-01T19:06:26.857Z,14.70
2023-01-01T19:09:01.740Z,14.70
2023-01-01T19:11:29.843Z,14.60
2023-01-01T19:14:02.690Z,14.50
2023-01-01T19:16:30.439Z,14.50
2023-01-01T19:19:21.490Z,14.50
2023-01-01T19:22:09.445Z,14.50
2023-01-01T19:24:36.220Z,14.40
2023-01-01T19:27:12.380Z,14.40
2023-01-01T19:29:42.671Z,14.30
2023-01-01T19:32:09.719Z,14.30
2023-01-01T19:34:38.505Z,14.30
2023-01-01T19:37:05.352Z,14.20
2023-01-01T19:39:34.302Z,14.20
2023-01-01T19:42:05.166Z,14.20
2023-01-01T19:44:33.058Z,14.10
2023-01-01T19:47:00.758Z,14.10
2023-01-01T19:49:28.069Z,14.00
2023-01-01T19:51:54.798Z,14.00
2023-01-01T19:54:21.484Z,14.00
2023-01-01T19:56:49.065Z,14.00
2023-01-01T19:59:15.767Z,13.90
2023-01-01T20:01:42.490Z,13.90
2023-01-01T20:04:09.408Z,13.80
2023-01-01T20:06:39.528Z,13.80
2023-01-01T20:09:07.201Z,13.70
2023-01-01T20:11:34.855Z,13.70
2023-01-01T20:14:02.636Z,13.70
2023-01-01T20:16:29.344Z,13.70
2023-01-01T20:18:56.072Z,13.70
2023-01-01T20:21:41.663Z,13.70
2023-01-01T20:24:08.350Z,13.60
2023-01-01T20:26:35.010Z,13.60
2023-01-01T20:29:19.828Z,13.70
2023-01-01T20:31:47.231Z,13.60
2023-01-01T20:34:13.883Z,13.60
2023-01-01T20:36:59.198Z,13.60
2023-01-01T20:39:26.249Z,13.60
2023-01-01T20:41:53.193Z,13.60
2023-01-01T20:44:19.977Z,13.50
2023-01-01T20:46:48.229Z,13.60
2023-01-01T20:49:16.977Z,13.60
2023-01-01T20:51:47.899Z,13.60
2023-01-01T20:54:14.832Z,13.60
2023-01-01T20:56:41.460Z,13.60
2023-01-01T20:59:31.819Z,13.60
2023-01-01T21:01:55.152Z,13.60
2023-01-01T21:04:21.899Z,13.60
2023-01-01T21:06:48.737Z,13.60
2023-01-01T21:09:15.375Z,13.60
2023-01-01T21:11:42.027Z,13.60
2023-01-01T21:14:09.513Z,13.60
2023-01-01T21:16:37.379Z,13.60
2023-01-01T21:19:07.144Z,13.60
2023-01-01T21:21:52.724Z,13.60
2023-01-01T21:24:33.930Z,13.60
2023-01-01T21:27:12.938Z,13.60
2023-01-01T21:29:45.164Z,13.60
2023-01-01T21:32:22.402Z,13.60
2023-01-01T21:34:50.753Z,13.70
2023-01-01T21:37:48.080Z,13.60
2023-01-01T21:40:30.709Z,13.60
2023-01-01T21:43:19.057Z,13.60
2023-01-01T21:45:47.247Z,13.70
2023-01-01T21:48:22.863Z,13.60
2023-01-01T21:50:51.876Z,13.70
2023-01-01T21:53:20.995Z,13.60
2023-01-01T21:55:55.076Z,13.60
2023-01-01T21:58:56.728Z,13.60
2023-01-01T22:01:30.588Z,13.70
2023-01-01T22:04:08.006Z,13.70
2023-01-01T22:06:36.395Z,13.70
2023-01-01T22:09:31.421Z,13.70
2023-01-01T22:12:05.615Z,13.60
2023-01-01T22:14:38.750Z,13.70
2023-01-01T22:17:16.875Z,13.60
2023-01-01T22:19:45.651Z,13.60
2023-01-01T22:22:14.794Z,13.60
2023-01-01T22:24:44.481Z,13.60
2023-01-01T22:27:33.124Z,13.70
2023-01-01T22:30:08.941Z,13.60
2023-01-01T22:32:36.260Z,13.50
2023-01-01T22:35:13.380Z,13.60
2023-01-01T22:37:40.649Z,13.60
2023-01-01T22:40:31.090Z,13.50
2023-01-01T22:43:20.577Z,13.60
2023-01-01T22:45:48.967Z,13.50
2023-01-01T22:48:23.657Z,13.50
2023-01-01T22:50:50.711Z,13.60
2023-01-01T22:53:17.546Z,13.50
2023-01-01T22:55:45.844Z,13.50
2023-01-01T22:58:12.628Z,13.50
2023-01-01T23:00:39.532Z,13.50
2023-01-01T23:03:06.272Z,13.50
2023-01-01T23:05:33.306Z,13.50
2023-01-01T23:07:59.989Z,13.50
2023-01-01T23:10:26.776Z,13.50
2023-01-01T23:12:53.406Z,13.50
2023-01-01T23:15:38.776Z,13.50
2023-01-01T23:18:05.428Z,13.50
2023-01-01T23:20:32.242Z,13.50
2023-01-01T23:22:59.049Z,13.50
2023-01-01T23:25:26.079Z,13.50
2023-01-01T23:27:53.259Z,13.50
2023-01-01T23:30:19.988Z,13.50
2023-01-01T23:32:46.963Z,13.50
2023-01-01T23:35:13.721Z,13.50
2023-01-01T23:37:40.392Z,13.50
2023-01-01T23:40:07.973Z,13.50
2023-01-01T23:42:34.648Z,13.50
2023-01-01T23:45:01.267Z,13.50
2023-01-01T23:47:28.093Z,13.50
2023-01-01T23:49:54.808Z,13.50
2023-01-01T23:52:21.439Z,13.50
2023-01-01T23:54:48.103Z,13.60
2023-01-01T23:57:14.737Z,13.60
2023-01-01T23:59:41.377Z,13.60
